sensor_id;sensor_type;location;lat;lon;timestamp;temperature;humidity
34492;DHT22;20737;49.908;8.126;2022-08-21T00:00:17;16.10;99.90
34492;DHT22;20737;49.908;8.126;2022-08-21T00:02:46;16.10;99.90
34492;DHT22;20737;49.908;8.126;2022-08-21T00:05:13;16.00;99.90
34492;DHT22;20737;49.908;8.126;2022-08-21T00:07:40;16.00;99.90
34492;DHT22;20737;49.908;8.126;2022-08-21T00:10:09;16.00;99.90
34492;DHT22;20737;49.908;8.126;2022-08-21T00:12:36;15.90;99.90
34492;DHT22;20737;49.908;8.126;2022-08-21T00:15:04;15.90;99.90
34492;DHT22;20737;49.908;8.126;2022-08-21T00:17:31;15.80;99.90
34492;DHT22;20737;49.908;8.126;2022-08-21T00:19:57;15.70;99.90
34492;DHT22;20737;49.908;8.126;2022-08-21T00:22:24;15.60;99.90
34492;DHT22;20737;49.908;8.126;2022-08-21T00:24:51;15.50;99.90
34492;DHT22;20737;49.908;8.126;2022-08-21T00:27:19;15.50;99.90
34492;DHT22;20737;49.908;8.126;2022-08-21T00:29:46;15.40;99.90
34492;DHT22;20737;49.908;8.126;2022-08-21T00:32:19;15.40;99.90
34492;DHT22;20737;49.908;8.126;2022-08-21T00:34:46;15.30;99.90
34492;DHT22;20737;49.908;8.126;2022-08-21T00:37:13;15.30;99.90
34492;DHT22;20737;49.908;8.126;2022-08-21T00:39:40;15.20;99.90
34492;DHT22;20737;49.908;8.126;2022-08-21T00:42:06;15.20;99.90
34492;DHT22;20737;49.908;8.126;2022-08-21T00:44:35;15.20;99.90
34492;DHT22;20737;49.908;8.126;2022-08-21T00:47:02;15.20;99.90
34492;DHT22;20737;49.908;8.126;2022-08-21T00:49:29;15.20;99.90
34492;DHT22;20737;49.908;8.126;2022-08-21T00:51:57;15.20;99.90
34492;DHT22;20737;49.908;8.126;2022-08-21T00:54:27;15.20;99.90
34492;DHT22;20737;49.908;8.126;2022-08-21T00:57:01;15.20;99.90
34492;DHT22;20737;49.908;8.126;2022-08-21T00:59:32;15.20;99.90
34492;DHT22;20737;49.908;8.126;2022-08-21T01:02:01;15.10;99.90
34492;DHT22;20737;49.908;8.126;2022-08-21T01:04:27;15.10;99.90
34492;DHT22;20737;49.908;8.126;2022-08-21T01:06:54;15.00;99.90
34492;DHT22;20737;49.908;8.126;2022-08-21T01:09:21;15.00;99.90
34492;DHT22;20737;49.908;8.126;2022-08-21T01:11:48;15.00;99.90
34492;DHT22;20737;49.908;8.126;2022-08-21T01:14:15;14.90;99.90
34492;DHT22;20737;49.908;8.126;2022-08-21T01:16:46;15.00;99.90
34492;DHT22;20737;49.908;8.126;2022-08-21T01:19:17;15.00;99.90
34492;DHT22;20737;49.908;8.126;2022-08-21T01:21:46;15.00;99.90
34492;DHT22;20737;49.908;8.126;2022-08-21T01:24:13;14.90;99.90
34492;DHT22;20737;49.908;8.126;2022-08-21T01:26:41;14.90;99.90
34492;DHT22;20737;49.908;8.126;2022-08-21T01:29:13;14.90;99.90
34492;DHT22;20737;49.908;8.126;2022-08-21T01:31:41;14.80;99.90
34492;DHT22;20737;49.908;8.126;2022-08-21T01:34:08;14.70;99.90
34492;DHT22;20737;49.908;8.126;2022-08-21T01:36:35;14.70;99.90
34492;DHT22;20737;49.908;8.126;2022-08-21T01:39:05;14.60;99.90
34492;DHT22;20737;49.908;8.126;2022-08-21T01:41:32;14.60;99.90
34492;DHT22;20737;49.908;8.126;2022-08-21T01:43:59;14.50;99.90
34492;DHT22;20737;49.908;8.126;2022-08-21T01:46:26;14.50;99.90
34492;DHT22;20737;49.908;8.126;2022-08-21T01:48:52;14.50;99.90
34492;DHT22;20737;49.908;8.126;2022-08-21T01:51:19;14.50;99.90
34492;DHT22;20737;49.908;8.126;2022-08-21T01:53:46;14.50;99.90
34492;DHT22;20737;49.908;8.126;2022-08-21T01:56:15;14.40;99.90
34492;DHT22;20737;49.908;8.126;2022-08-21T01:58:44;14.30;99.90
34492;DHT22;20737;49.908;8.126;2022-08-21T02:01:12;14.20;99.90
34492;DHT22;20737;49.908;8.126;2022-08-21T02:03:39;14.20;99.90
34492;DHT22;20737;49.908;8.126;2022-08-21T02:06:11;14.10;99.90
34492;DHT22;20737;49.908;8.126;2022-08-21T02:08:38;14.10;99.90
34492;DHT22;20737;49.908;8.126;2022-08-21T02:11:05;14.10;99.90
34492;DHT22;20737;49.908;8.126;2022-08-21T02:13:33;14.10;99.90
34492;DHT22;20737;49.908;8.126;2022-08-21T02:16:00;14.10;99.90
34492;DHT22;20737;49.908;8.126;2022-08-21T02:18:28;14.10;99.90
34492;DHT22;20737;49.908;8.126;2022-08-21T02:20:55;14.10;99.90
34492;DHT22;20737;49.908;8.126;2022-08-21T02:23:22;14.10;99.90
34492;DHT22;20737;49.908;8.126;2022-08-21T02:25:49;14.10;99.90
34492;DHT22;20737;49.908;8.126;2022-08-21T02:28:16;14.20;99.90
34492;DHT22;20737;49.908;8.126;2022-08-21T02:30:46;14.10;99.90
34492;DHT22;20737;49.908;8.126;2022-08-21T02:33:14;14.10;99.90
34492;DHT22;20737;49.908;8.126;2022-08-21T02:35:43;14.10;99.90
34492;DHT22;20737;49.908;8.126;2022-08-21T02:38:12;14.10;99.90
34492;DHT22;20737;49.908;8.126;2022-08-21T02:40:41;14.20;99.90
34492;DHT22;20737;49.908;8.126;2022-08-21T02:43:08;14.20;99.90
34492;DHT22;20737;49.908;8.126;2022-08-21T02:45:36;14.20;99.90
34492;DHT22;20737;49.908;8.126;2022-08-21T02:48:06;14.10;99.90
34492;DHT22;20737;49.908;8.126;2022-08-21T02:50:37;14.10;99.90
34492;DHT22;20737;49.908;8.126;2022-08-21T02:53:05;14.10;99.90
34492;DHT22;20737;49.908;8.126;2022-08-21T02:55:34;14.00;99.90
34492;DHT22;20737;49.908;8.126;2022-08-21T02:58:03;14.00;99.90
34492;DHT22;20737;49.908;8.126;2022-08-21T03:00:30;14.00;99.90
34492;DHT22;20737;49.908;8.126;2022-08-21T03:02:58;14.00;99.90
34492;DHT22;20737;49.908;8.126;2022-08-21T03:05:29;14.00;99.90
34492;DHT22;20737;49.908;8.126;2022-08-21T03:07:58;13.90;99.90
34492;DHT22;20737;49.908;8.126;2022-08-21T03:10:25;13.80;99.90
34492;DHT22;20737;49.908;8.126;2022-08-21T03:12:52;13.90;99.90
34492;DHT22;20737;49.908;8.126;2022-08-21T03:15:21;13.80;99.90
34492;DHT22;20737;49.908;8.126;2022-08-21T03:17:49;13.80;99.90
34492;DHT22;20737;49.908;8.126;2022-08-21T03:20:19;13.70;99.90
34492;DHT22;20737;49.908;8.126;2022-08-21T03:22:49;13.60;99.90
34492;DHT22;20737;49.908;8.126;2022-08-21T03:25:16;13.60;99.90
34492;DHT22;20737;49.908;8.126;2022-08-21T03:27:43;13.60;99.90
34492;DHT22;20737;49.908;8.126;2022-08-21T03:30:11;13.60;99.90
34492;DHT22;20737;49.908;8.126;2022-08-21T03:32:38;13.60;99.90
34492;DHT22;20737;49.908;8.126;2022-08-21T03:35:07;13.50;99.90
34492;DHT22;20737;49.908;8.126;2022-08-21T03:37:35;13.50;99.90
34492;DHT22;20737;49.908;8.126;2022-08-21T03:40:05;13.50;99.90
34492;DHT22;20737;49.908;8.126;2022-08-21T03:42:32;13.50;99.90
34492;DHT22;20737;49.908;8.126;2022-08-21T03:44:59;13.50;99.90
34492;DHT22;20737;49.908;8.126;2022-08-21T03:47:26;13.50;99.90
34492;DHT22;20737;49.908;8.126;2022-08-21T03:49:53;13.40;99.90
34492;DHT22;20737;49.908;8.126;2022-08-21T03:52:19;13.50;99.90
34492;DHT22;20737;49.908;8.126;2022-08-21T03:54:46;13.50;99.90
34492;DHT22;20737;49.908;8.126;2022-08-21T03:57:15;13.50;99.90
34492;DHT22;20737;49.908;8.126;2022-08-21T03:59:42;13.40;99.90
34492;DHT22;20737;49.908;8.126;2022-08-21T04:02:10;13.40;99.90
34492;DHT22;20737;49.908;8.126;2022-08-21T04:04:37;13.20;99.90
34492;DHT22;20737;49.908;8.126;2022-08-21T04:07:04;13.20;99.90
34492;DHT22;20737;49.908;8.126;2022-08-21T04:09:31;13.20;99.90
34492;DHT22;20737;49.908;8.126;2022-08-21T04:11:58;13.20;99.90
34492;DHT22;20737;49.908;8.126;2022-08-21T04:14:27;13.10;99.90
34492;DHT22;20737;49.908;8.126;2022-08-21T04:16:54;13.10;99.90
34492;DHT22;20737;49.908;8.126;2022-08-21T04:19:20;13.20;99.90
34492;DHT22;20737;49.908;8.126;2022-08-21T04:21:48;13.20;99.90
34492;DHT22;20737;49.908;8.126;2022-08-21T04:24:15;13.20;99.90
34492;DHT22;20737;49.908;8.126;2022-08-21T04:26:42;13.30;99.90
34492;DHT22;20737;49.908;8.126;2022-08-21T04:29:09;13.30;99.90
34492;DHT22;20737;49.908;8.126;2022-08-21T04:31:37;13.30;99.90
34492;DHT22;20737;49.908;8.126;2022-08-21T04:34:04;13.30;99.90
34492;DHT22;20737;49.908;8.126;2022-08-21T04:36:31;13.40;99.90
34492;DHT22;20737;49.908;8.126;2022-08-21T04:38:58;13.40;99.90
34492;DHT22;20737;49.908;8.126;2022-08-21T04:41:25;13.40;99.90
34492;DHT22;20737;49.908;8.126;2022-08-21T04:43:52;13.40;99.90
34492;DHT22;20737;49.908;8.126;2022-08-21T04:46:20;13.50;99.90
34492;DHT22;20737;49.908;8.126;2022-08-21T04:48:48;13.50;99.90
34492;DHT22;20737;49.908;8.126;2022-08-21T04:51:18;13.60;99.90
34492;DHT22;20737;49.908;8.126;2022-08-21T04:53:48;13.60;99.90
34492;DHT22;20737;49.908;8.126;2022-08-21T04:56:19;13.70;99.90
34492;DHT22;20737;49.908;8.126;2022-08-21T04:58:48;13.70;99.90
34492;DHT22;20737;49.908;8.126;2022-08-21T05:01:18;13.70;99.90
34492;DHT22;20737;49.908;8.126;2022-08-21T05:03:50;13.80;99.90
34492;DHT22;20737;49.908;8.126;2022-08-21T05:06:17;13.80;99.90
34492;DHT22;20737;49.908;8.126;2022-08-21T05:08:46;13.80;99.90
34492;DHT22;20737;49.908;8.126;2022-08-21T05:11:13;13.90;99.90
34492;DHT22;20737;49.908;8.126;2022-08-21T05:13:40;13.90;99.90
34492;DHT22;20737;49.908;8.126;2022-08-21T05:16:07;13.90;99.90
34492;DHT22;20737;49.908;8.126;2022-08-21T05:18:34;14.00;99.90
34492;DHT22;20737;49.908;8.126;2022-08-21T05:21:03;14.10;99.90
34492;DHT22;20737;49.908;8.126;2022-08-21T05:23:30;14.10;99.90
34492;DHT22;20737;49.908;8.126;2022-08-21T05:25:57;14.10;99.90
34492;DHT22;20737;49.908;8.126;2022-08-21T05:28:23;14.10;99.90
34492;DHT22;20737;49.908;8.126;2022-08-21T05:30:51;14.10;99.90
34492;DHT22;20737;49.908;8.126;2022-08-21T05:33:17;14.20;99.90
34492;DHT22;20737;49.908;8.126;2022-08-21T05:35:44;14.30;99.90
34492;DHT22;20737;49.908;8.126;2022-08-21T05:38:12;14.40;99.90
34492;DHT22;20737;49.908;8.126;2022-08-21T05:40:39;14.50;99.90
34492;DHT22;20737;49.908;8.126;2022-08-21T05:43:06;14.70;99.90
34492;DHT22;20737;49.908;8.126;2022-08-21T05:45:33;14.80;99.90
34492;DHT22;20737;49.908;8.126;2022-08-21T05:48:06;14.90;99.90
34492;DHT22;20737;49.908;8.126;2022-08-21T05:50:33;15.10;99.90
34492;DHT22;20737;49.908;8.126;2022-08-21T05:53:00;15.30;99.90
34492;DHT22;20737;49.908;8.126;2022-08-21T05:55:28;15.40;99.90
34492;DHT22;20737;49.908;8.126;2022-08-21T05:57:56;15.60;99.90
34492;DHT22;20737;49.908;8.126;2022-08-21T06:00:22;15.70;99.90
34492;DHT22;20737;49.908;8.126;2022-08-21T06:02:49;15.80;99.90
34492;DHT22;20737;49.908;8.126;2022-08-21T06:05:16;15.90;99.90
34492;DHT22;20737;49.908;8.126;2022-08-21T06:07:43;16.10;99.90
34492;DHT22;20737;49.908;8.126;2022-08-21T06:10:10;16.30;99.90
34492;DHT22;20737;49.908;8.126;2022-08-21T06:12:38;16.40;99.90
34492;DHT22;20737;49.908;8.126;2022-08-21T06:15:06;16.50;99.90
34492;DHT22;20737;49.908;8.126;2022-08-21T06:17:33;16.60;99.90
34492;DHT22;20737;49.908;8.126;2022-08-21T06:20:00;16.80;99.90
34492;DHT22;20737;49.908;8.126;2022-08-21T06:22:27;17.00;99.90
34492;DHT22;20737;49.908;8.126;2022-08-21T06:24:54;17.20;99.90
34492;DHT22;20737;49.908;8.126;2022-08-21T06:27:21;17.40;99.90
34492;DHT22;20737;49.908;8.126;2022-08-21T06:29:49;17.60;99.90
34492;DHT22;20737;49.908;8.126;2022-08-21T06:32:15;18.00;99.90
34492;DHT22;20737;49.908;8.126;2022-08-21T06:34:42;18.40;99.90
34492;DHT22;20737;49.908;8.126;2022-08-21T06:37:09;19.30;99.90
34492;DHT22;20737;49.908;8.126;2022-08-21T06:39:36;20.40;99.90
34492;DHT22;20737;49.908;8.126;2022-08-21T06:42:03;21.70;99.90
34492;DHT22;20737;49.908;8.126;2022-08-21T06:44:30;22.90;99.80
34492;DHT22;20737;49.908;8.126;2022-08-21T06:46:58;23.30;96.50
34492;DHT22;20737;49.908;8.126;2022-08-21T06:49:25;23.80;94.80
34492;DHT22;20737;49.908;8.126;2022-08-21T06:51:52;24.40;91.80
34492;DHT22;20737;49.908;8.126;2022-08-21T06:54:19;25.20;91.30
34492;DHT22;20737;49.908;8.126;2022-08-21T06:56:46;25.70;87.90
34492;DHT22;20737;49.908;8.126;2022-08-21T06:59:12;26.00;84.40
34492;DHT22;20737;49.908;8.126;2022-08-21T07:01:39;26.40;83.10
34492;DHT22;20737;49.908;8.126;2022-08-21T07:04:08;27.00;78.70
34492;DHT22;20737;49.908;8.126;2022-08-21T07:06:34;27.50;74.80
34492;DHT22;20737;49.908;8.126;2022-08-21T07:09:01;27.60;75.00
34492;DHT22;20737;49.908;8.126;2022-08-21T07:11:28;27.70;73.20
34492;DHT22;20737;49.908;8.126;2022-08-21T07:13:55;27.80;70.80
34492;DHT22;20737;49.908;8.126;2022-08-21T07:16:22;28.20;67.90
34492;DHT22;20737;49.908;8.126;2022-08-21T07:18:49;28.40;67.90
34492;DHT22;20737;49.908;8.126;2022-08-21T07:21:17;29.20;64.20
34492;DHT22;20737;49.908;8.126;2022-08-21T07:23:47;28.90;64.60
34492;DHT22;20737;49.908;8.126;2022-08-21T07:26:15;28.30;65.60
34492;DHT22;20737;49.908;8.126;2022-08-21T07:28:42;27.00;73.20
34492;DHT22;20737;49.908;8.126;2022-08-21T07:31:10;26.10;80.40
34492;DHT22;20737;49.908;8.126;2022-08-21T07:33:39;25.20;82.70
34492;DHT22;20737;49.908;8.126;2022-08-21T07:36:07;24.80;85.00
34492;DHT22;20737;49.908;8.126;2022-08-21T07:38:36;24.60;85.80
34492;DHT22;20737;49.908;8.126;2022-08-21T07:41:15;24.60;90.80
34492;DHT22;20737;49.908;8.126;2022-08-21T07:43:42;24.80;88.00
34492;DHT22;20737;49.908;8.126;2022-08-21T07:46:09;25.80;83.40
34492;DHT22;20737;49.908;8.126;2022-08-21T07:48:36;26.90;80.80
34492;DHT22;20737;49.908;8.126;2022-08-21T07:51:06;27.90;75.50
34492;DHT22;20737;49.908;8.126;2022-08-21T07:53:35;29.00;70.40
34492;DHT22;20737;49.908;8.126;2022-08-21T07:56:03;29.50;69.60
34492;DHT22;20737;49.908;8.126;2022-08-21T07:58:31;29.90;65.10
34492;DHT22;20737;49.908;8.126;2022-08-21T08:00:58;30.50;61.10
34492;DHT22;20737;49.908;8.126;2022-08-21T08:03:25;30.90;61.90
34492;DHT22;20737;49.908;8.126;2022-08-21T08:05:52;31.40;61.90
34492;DHT22;20737;49.908;8.126;2022-08-21T08:08:19;31.90;58.20
34492;DHT22;20737;49.908;8.126;2022-08-21T08:10:47;32.20;58.40
34492;DHT22;20737;49.908;8.126;2022-08-21T08:13:14;32.80;55.10
34492;DHT22;20737;49.908;8.126;2022-08-21T08:15:41;32.60;55.10
34492;DHT22;20737;49.908;8.126;2022-08-21T08:18:08;33.00;54.50
34492;DHT22;20737;49.908;8.126;2022-08-21T08:20:35;33.20;54.60
34492;DHT22;20737;49.908;8.126;2022-08-21T08:23:02;33.60;53.30
34492;DHT22;20737;49.908;8.126;2022-08-21T08:25:29;33.40;54.30
34492;DHT22;20737;49.908;8.126;2022-08-21T08:27:57;33.60;51.50
34492;DHT22;20737;49.908;8.126;2022-08-21T08:30:24;33.80;50.60
34492;DHT22;20737;49.908;8.126;2022-08-21T08:32:51;34.20;50.80
34492;DHT22;20737;49.908;8.126;2022-08-21T08:35:18;34.50;49.90
34492;DHT22;20737;49.908;8.126;2022-08-21T08:37:45;35.30;49.80
34492;DHT22;20737;49.908;8.126;2022-08-21T08:40:18;36.30;46.80
34492;DHT22;20737;49.908;8.126;2022-08-21T08:42:47;36.20;45.60
34492;DHT22;20737;49.908;8.126;2022-08-21T08:45:19;36.20;45.10
34492;DHT22;20737;49.908;8.126;2022-08-21T08:47:50;36.30;44.50
34492;DHT22;20737;49.908;8.126;2022-08-21T08:50:25;36.10;43.40
34492;DHT22;20737;49.908;8.126;2022-08-21T08:52:57;35.90;42.70
34492;DHT22;20737;49.908;8.126;2022-08-21T08:55:30;36.20;42.40
34492;DHT22;20737;49.908;8.126;2022-08-21T08:57:59;35.90;42.90
34492;DHT22;20737;49.908;8.126;2022-08-21T09:00:30;36.50;41.90
34492;DHT22;20737;49.908;8.126;2022-08-21T09:02:59;36.80;39.80
34492;DHT22;20737;49.908;8.126;2022-08-21T09:05:28;36.40;41.10
34492;DHT22;20737;49.908;8.126;2022-08-21T09:08:16;35.60;39.40
34492;DHT22;20737;49.908;8.126;2022-08-21T09:10:53;35.50;41.30
34492;DHT22;20737;49.908;8.126;2022-08-21T09:13:33;36.20;38.80
34492;DHT22;20737;49.908;8.126;2022-08-21T09:16:13;37.00;39.40
34492;DHT22;20737;49.908;8.126;2022-08-21T09:18:53;37.00;39.30
34492;DHT22;20737;49.908;8.126;2022-08-21T09:21:30;37.30;38.80
34492;DHT22;20737;49.908;8.126;2022-08-21T09:24:12;37.60;38.80
34492;DHT22;20737;49.908;8.126;2022-08-21T09:26:49;37.20;38.20
34492;DHT22;20737;49.908;8.126;2022-08-21T09:29:21;37.50;38.90
34492;DHT22;20737;49.908;8.126;2022-08-21T09:31:51;37.50;37.70
34492;DHT22;20737;49.908;8.126;2022-08-21T09:34:26;37.50;39.00
34492;DHT22;20737;49.908;8.126;2022-08-21T09:36:53;37.90;39.20
34492;DHT22;20737;49.908;8.126;2022-08-21T09:39:24;37.90;37.90
34492;DHT22;20737;49.908;8.126;2022-08-21T09:41:56;38.10;37.10
34492;DHT22;20737;49.908;8.126;2022-08-21T09:44:26;38.00;36.30
34492;DHT22;20737;49.908;8.126;2022-08-21T09:46:55;37.00;36.20
34492;DHT22;20737;49.908;8.126;2022-08-21T09:49:29;37.10;40.00
34492;DHT22;20737;49.908;8.126;2022-08-21T09:51:57;37.50;36.60
34492;DHT22;20737;49.908;8.126;2022-08-21T09:54:28;37.30;36.50
34492;DHT22;20737;49.908;8.126;2022-08-21T09:56:58;35.80;38.60
34492;DHT22;20737;49.908;8.126;2022-08-21T09:59:45;35.00;39.70
34492;DHT22;20737;49.908;8.126;2022-08-21T10:02:24;33.70;40.80
34492;DHT22;20737;49.908;8.126;2022-08-21T10:04:53;32.20;43.80
34492;DHT22;20737;49.908;8.126;2022-08-21T10:07:23;31.00;48.30
34492;DHT22;20737;49.908;8.126;2022-08-21T10:09:59;31.90;47.70
34492;DHT22;20737;49.908;8.126;2022-08-21T10:12:31;33.60;42.90
34492;DHT22;20737;49.908;8.126;2022-08-21T10:15:05;35.00;39.00
34492;DHT22;20737;49.908;8.126;2022-08-21T10:17:44;36.10;39.40
34492;DHT22;20737;49.908;8.126;2022-08-21T10:20:18;37.30;37.20
34492;DHT22;20737;49.908;8.126;2022-08-21T10:22:54;38.00;35.80
34492;DHT22;20737;49.908;8.126;2022-08-21T10:25:32;38.60;34.80
34492;DHT22;20737;49.908;8.126;2022-08-21T10:28:05;38.60;36.50
34492;DHT22;20737;49.908;8.126;2022-08-21T10:30:38;38.70;35.00
34492;DHT22;20737;49.908;8.126;2022-08-21T10:33:18;39.40;34.40
34492;DHT22;20737;49.908;8.126;2022-08-21T10:35:51;39.60;32.90
34492;DHT22;20737;49.908;8.126;2022-08-21T10:41:37;38.60;34.00
34492;DHT22;20737;49.908;8.126;2022-08-21T10:44:17;39.10;34.00
34492;DHT22;20737;49.908;8.126;2022-08-21T10:46:53;39.60;33.50
34492;DHT22;20737;49.908;8.126;2022-08-21T10:49:28;39.20;32.80
34492;DHT22;20737;49.908;8.126;2022-08-21T10:52:13;39.60;34.00
34492;DHT22;20737;49.908;8.126;2022-08-21T10:54:49;39.40;32.20
34492;DHT22;20737;49.908;8.126;2022-08-21T10:57:27;38.70;33.40
34492;DHT22;20737;49.908;8.126;2022-08-21T11:00:00;38.10;33.00
34492;DHT22;20737;49.908;8.126;2022-08-21T11:02:33;37.50;35.10
34492;DHT22;20737;49.908;8.126;2022-08-21T11:05:10;37.30;34.90
34492;DHT22;20737;49.908;8.126;2022-08-21T11:07:42;37.80;34.20
34492;DHT22;20737;49.908;8.126;2022-08-21T11:10:14;37.80;35.10
34492;DHT22;20737;49.908;8.126;2022-08-21T11:12:43;38.10;33.10
34492;DHT22;20737;49.908;8.126;2022-08-21T11:15:23;37.60;34.40
34492;DHT22;20737;49.908;8.126;2022-08-21T11:17:56;38.30;33.50
34492;DHT22;20737;49.908;8.126;2022-08-21T11:20:30;38.20;33.90
34492;DHT22;20737;49.908;8.126;2022-08-21T11:23:04;38.50;33.00
34492;DHT22;20737;49.908;8.126;2022-08-21T11:25:35;37.90;32.70
34492;DHT22;20737;49.908;8.126;2022-08-21T11:28:08;37.40;33.90
34492;DHT22;20737;49.908;8.126;2022-08-21T11:30:45;37.30;33.30
34492;DHT22;20737;49.908;8.126;2022-08-21T11:33:28;36.80;34.80
34492;DHT22;20737;49.908;8.126;2022-08-21T11:36:08;36.70;34.70
34492;DHT22;20737;49.908;8.126;2022-08-21T11:38:40;35.90;36.00
34492;DHT22;20737;49.908;8.126;2022-08-21T11:41:18;35.10;37.00
34492;DHT22;20737;49.908;8.126;2022-08-21T11:43:51;34.10;38.50
34492;DHT22;20737;49.908;8.126;2022-08-21T11:46:31;33.40;41.00
34492;DHT22;20737;49.908;8.126;2022-08-21T11:49:28;33.10;41.20
34492;DHT22;20737;49.908;8.126;2022-08-21T11:52:07;32.00;40.70
34492;DHT22;20737;49.908;8.126;2022-08-21T11:54:38;31.20;44.70
34492;DHT22;20737;49.908;8.126;2022-08-21T11:57:14;30.40;45.40
34492;DHT22;20737;49.908;8.126;2022-08-21T11:59:48;30.00;45.90
34492;DHT22;20737;49.908;8.126;2022-08-21T12:02:20;29.80;46.00
34492;DHT22;20737;49.908;8.126;2022-08-21T12:04:51;30.10;45.70
34492;DHT22;20737;49.908;8.126;2022-08-21T12:07:32;30.60;45.80
34492;DHT22;20737;49.908;8.126;2022-08-21T12:10:00;30.60;43.70
34492;DHT22;20737;49.908;8.126;2022-08-21T12:12:28;30.90;43.60
34492;DHT22;20737;49.908;8.126;2022-08-21T12:15:23;31.10;43.90
34492;DHT22;20737;49.908;8.126;2022-08-21T12:17:54;31.20;43.10
34492;DHT22;20737;49.908;8.126;2022-08-21T12:20:37;31.30;43.20
34492;DHT22;20737;49.908;8.126;2022-08-21T12:23:17;31.60;43.50
34492;DHT22;20737;49.908;8.126;2022-08-21T12:25:47;31.50;43.80
34492;DHT22;20737;49.908;8.126;2022-08-21T12:28:25;31.70;44.30
34492;DHT22;20737;49.908;8.126;2022-08-21T12:30:52;31.50;42.00
34492;DHT22;20737;49.908;8.126;2022-08-21T12:33:24;31.30;44.20
34492;DHT22;20737;49.908;8.126;2022-08-21T12:35:54;31.30;42.70
34492;DHT22;20737;49.908;8.126;2022-08-21T12:38:34;30.90;42.60
34492;DHT22;20737;49.908;8.126;2022-08-21T12:41:17;30.10;43.50
34492;DHT22;20737;49.908;8.126;2022-08-21T12:43:47;30.10;45.10
34492;DHT22;20737;49.908;8.126;2022-08-21T12:46:17;29.80;45.20
34492;DHT22;20737;49.908;8.126;2022-08-21T12:48:54;29.60;45.40
34492;DHT22;20737;49.908;8.126;2022-08-21T12:51:26;29.30;46.20
34492;DHT22;20737;49.908;8.126;2022-08-21T12:53:57;29.10;47.20
34492;DHT22;20737;49.908;8.126;2022-08-21T12:56:26;29.00;46.10
34492;DHT22;20737;49.908;8.126;2022-08-21T12:58:55;29.20;48.00
34492;DHT22;20737;49.908;8.126;2022-08-21T13:01:27;29.50;44.80
34492;DHT22;20737;49.908;8.126;2022-08-21T13:03:58;29.70;46.20
34492;DHT22;20737;49.908;8.126;2022-08-21T13:06:28;30.20;46.60
34492;DHT22;20737;49.908;8.126;2022-08-21T13:09:03;30.40;44.80
34492;DHT22;20737;49.908;8.126;2022-08-21T13:11:32;30.70;44.50
34492;DHT22;20737;49.908;8.126;2022-08-21T13:14:00;30.70;43.40
34492;DHT22;20737;49.908;8.126;2022-08-21T13:16:29;30.70;44.90
34492;DHT22;20737;49.908;8.126;2022-08-21T13:18:59;30.70;43.50
34492;DHT22;20737;49.908;8.126;2022-08-21T13:21:32;31.00;43.10
34492;DHT22;20737;49.908;8.126;2022-08-21T13:24:18;30.80;42.30
34492;DHT22;20737;49.908;8.126;2022-08-21T13:26:46;30.80;43.00
34492;DHT22;20737;49.908;8.126;2022-08-21T13:29:17;31.10;43.00
34492;DHT22;20737;49.908;8.126;2022-08-21T13:31:48;31.00;42.70
34492;DHT22;20737;49.908;8.126;2022-08-21T13:34:15;31.20;42.70
34492;DHT22;20737;49.908;8.126;2022-08-21T13:36:44;31.20;43.20
34492;DHT22;20737;49.908;8.126;2022-08-21T13:39:14;31.00;42.80
34492;DHT22;20737;49.908;8.126;2022-08-21T13:41:46;31.10;43.40
34492;DHT22;20737;49.908;8.126;2022-08-21T13:44:17;31.10;43.30
34492;DHT22;20737;49.908;8.126;2022-08-21T13:46:45;31.00;42.90
34492;DHT22;20737;49.908;8.126;2022-08-21T13:49:14;30.90;43.70
34492;DHT22;20737;49.908;8.126;2022-08-21T13:51:42;30.90;42.10
34492;DHT22;20737;49.908;8.126;2022-08-21T13:54:23;30.80;43.00
34492;DHT22;20737;49.908;8.126;2022-08-21T13:56:53;30.80;42.10
34492;DHT22;20737;49.908;8.126;2022-08-21T13:59:25;30.70;43.40
34492;DHT22;20737;49.908;8.126;2022-08-21T14:01:55;30.80;43.50
34492;DHT22;20737;49.908;8.126;2022-08-21T14:04:32;30.80;43.30
34492;DHT22;20737;49.908;8.126;2022-08-21T14:07:00;30.90;41.80
34492;DHT22;20737;49.908;8.126;2022-08-21T14:09:30;30.70;42.40
34492;DHT22;20737;49.908;8.126;2022-08-21T14:12:01;30.60;41.70
34492;DHT22;20737;49.908;8.126;2022-08-21T14:14:32;30.60;43.30
34492;DHT22;20737;49.908;8.126;2022-08-21T14:17:02;30.70;43.10
34492;DHT22;20737;49.908;8.126;2022-08-21T14:19:37;30.80;44.10
34492;DHT22;20737;49.908;8.126;2022-08-21T14:25:06;30.90;42.10
34492;DHT22;20737;49.908;8.126;2022-08-21T14:27:38;30.70;42.00
34492;DHT22;20737;49.908;8.126;2022-08-21T14:30:11;30.40;43.00
34492;DHT22;20737;49.908;8.126;2022-08-21T14:32:39;30.10;43.60
34492;DHT22;20737;49.908;8.126;2022-08-21T14:35:07;29.70;44.30
34492;DHT22;20737;49.908;8.126;2022-08-21T14:37:34;29.90;45.40
34492;DHT22;20737;49.908;8.126;2022-08-21T14:40:02;30.10;44.50
34492;DHT22;20737;49.908;8.126;2022-08-21T14:42:29;30.40;42.50
34492;DHT22;20737;49.908;8.126;2022-08-21T14:45:10;30.60;42.70
34492;DHT22;20737;49.908;8.126;2022-08-21T14:47:39;30.80;42.10
34492;DHT22;20737;49.908;8.126;2022-08-21T14:50:06;30.90;41.80
34492;DHT22;20737;49.908;8.126;2022-08-21T14:52:33;31.00;41.90
34492;DHT22;20737;49.908;8.126;2022-08-21T14:55:00;30.90;42.20
34492;DHT22;20737;49.908;8.126;2022-08-21T14:57:30;30.90;42.20
34492;DHT22;20737;49.908;8.126;2022-08-21T14:59:58;31.00;42.20
34492;DHT22;20737;49.908;8.126;2022-08-21T15:02:26;30.80;43.90
34492;DHT22;20737;49.908;8.126;2022-08-21T15:04:53;30.70;42.70
34492;DHT22;20737;49.908;8.126;2022-08-21T15:07:19;30.40;42.80
34492;DHT22;20737;49.908;8.126;2022-08-21T15:09:46;30.40;43.80
34492;DHT22;20737;49.908;8.126;2022-08-21T15:12:13;30.50;41.90
34492;DHT22;20737;49.908;8.126;2022-08-21T15:14:42;30.70;42.40
34492;DHT22;20737;49.908;8.126;2022-08-21T15:17:10;30.60;42.30
34492;DHT22;20737;49.908;8.126;2022-08-21T15:19:38;30.70;43.10
34492;DHT22;20737;49.908;8.126;2022-08-21T15:22:05;30.80;44.20
34492;DHT22;20737;49.908;8.126;2022-08-21T15:24:32;30.80;41.80
34492;DHT22;20737;49.908;8.126;2022-08-21T15:27:01;30.80;41.00
34492;DHT22;20737;49.908;8.126;2022-08-21T15:29:30;30.80;41.90
34492;DHT22;20737;49.908;8.126;2022-08-21T15:32:00;30.80;42.20
34492;DHT22;20737;49.908;8.126;2022-08-21T15:34:30;30.60;40.30
34492;DHT22;20737;49.908;8.126;2022-08-21T15:36:57;30.50;43.30
34492;DHT22;20737;49.908;8.126;2022-08-21T15:39:25;30.40;41.10
34492;DHT22;20737;49.908;8.126;2022-08-21T15:41:52;30.10;43.20
34492;DHT22;20737;49.908;8.126;2022-08-21T15:44:19;29.80;42.90
34492;DHT22;20737;49.908;8.126;2022-08-21T15:46:46;29.80;43.20
34492;DHT22;20737;49.908;8.126;2022-08-21T15:49:13;29.70;43.30
34492;DHT22;20737;49.908;8.126;2022-08-21T15:51:41;29.90;42.60